createdAt,value
2022-12-07T00:00:02.653Z,18.6
2022-12-07T00:01:46.390Z,18.6
2022-12-07T00:03:30.053Z,18.6
2022-12-07T00:05:13.801Z,18.5
2022-12-07T00:06:57.466Z,18.6
2022-12-07T00:08:41.145Z,18.5
2022-12-07T00:10:24.867Z,18.5
2022-12-07T00:12:08.594Z,18.5
2022-12-07T00:13:52.262Z,18.5
2022-12-07T00:15:35.995Z,18.5
2022-12-07T00:17:19.744Z,18.5
2022-12-07T00:19:03.411Z,18.5
2022-12-07T00:20:47.080Z,18.5
2022-12-07T00:22:30.768Z,18.5
2022-12-07T00:24:14.511Z,18.6
2022-12-07T00:25:58.224Z,18.5
2022-12-07T00:27:41.878Z,18.5
2022-12-07T00:29:25.751Z,18.5
2022-12-07T00:31:09.287Z,18.5
2022-12-07T00:32:52.995Z,18.5
2022-12-07T00:34:36.699Z,18.6
2022-12-07T00:36:20.396Z,18.5
2022-12-07T00:38:04.096Z,18.5
2022-12-07T00:39:47.799Z,18.5
2022-12-07T00:41:31.579Z,18.6
2022-12-07T00:43:15.206Z,18.5
2022-12-07T00:44:58.902Z,18.6
2022-12-07T00:46:42.619Z,18.5
2022-12-07T00:48:26.444Z,18.5
2022-12-07T00:50:10.055Z,18.5
2022-12-07T00:51:53.822Z,18.5
2022-12-07T00:53:37.429Z,18.5
2022-12-07T00:55:21.141Z,18.5
2022-12-07T00:57:04.859Z,18.5
2022-12-07T00:58:48.534Z,18.5
2022-12-07T01:00:32.251Z,18.5
2022-12-07T01:02:15.929Z,18.5
2022-12-07T01:03:59.646Z,18.5
2022-12-07T01:05:43.443Z,18.5
2022-12-07T01:07:27.035Z,18.5
2022-12-07T01:09:10.746Z,18.5
2022-12-07T01:10:54.438Z,18.5
2022-12-07T01:12:38.153Z,18.5
2022-12-07T01:14:21.845Z,18.5
2022-12-07T01:16:05.551Z,18.5
2022-12-07T01:17:49.295Z,18.5
2022-12-07T01:19:32.955Z,18.5
2022-12-07T01:21:16.666Z,18.5
2022-12-07T01:23:00.367Z,18.5
2022-12-07T01:26:27.816Z,18.5
2022-12-07T01:28:11.543Z,18.5
2022-12-07T01:29:55.180Z,18.5
2022-12-07T01:31:38.882Z,18.5
2022-12-07T01:33:22.589Z,18.5
2022-12-07T01:35:06.286Z,18.5
2022-12-07T01:36:50.066Z,18.5
2022-12-07T01:38:33.690Z,18.5
2022-12-07T01:40:17.394Z,18.5
2022-12-07T01:42:01.098Z,18.5
2022-12-07T01:43:44.800Z,18.5
2022-12-07T01:45:28.509Z,18.5
2022-12-07T01:47:12.298Z,18.5
2022-12-07T01:48:55.903Z,18.5
2022-12-07T01:50:39.661Z,18.5
2022-12-07T01:52:23.373Z,18.5
2022-12-07T01:54:07.015Z,18.5
2022-12-07T01:55:50.792Z,18.5
2022-12-07T01:57:34.440Z,18.5
2022-12-07T01:59:18.128Z,18.5
2022-12-07T02:01:01.911Z,18.5
2022-12-07T02:02:45.622Z,18.5
2022-12-07T02:04:29.333Z,18.5
2022-12-07T02:06:12.948Z,18.5
2022-12-07T02:07:56.648Z,18.5
2022-12-07T02:09:40.470Z,18.5
2022-12-07T02:11:24.137Z,18.5
2022-12-07T02:13:07.750Z,18.5
2022-12-07T02:14:51.529Z,18.5
2022-12-07T02:16:35.172Z,18.5
2022-12-07T02:18:18.927Z,18.5
2022-12-07T02:20:02.584Z,18.5
2022-12-07T02:21:46.280Z,18.5
2022-12-07T02:23:29.978Z,18.5
2022-12-07T02:25:13.717Z,18.5
2022-12-07T02:26:57.379Z,18.5
2022-12-07T02:28:41.363Z,18.5
2022-12-07T02:30:24.789Z,18.5
2022-12-07T02:32:08.612Z,18.5
2022-12-07T02:33:52.296Z,18.5
2022-12-07T02:35:35.885Z,18.5
2022-12-07T02:37:19.625Z,18.5
2022-12-07T02:39:03.309Z,18.5
2022-12-07T02:40:46.996Z,18.5
2022-12-07T02:42:30.764Z,18.5
2022-12-07T02:44:14.504Z,18.5
2022-12-07T02:45:58.103Z,18.5
2022-12-07T02:47:41.804Z,18.5
2022-12-07T02:49:25.571Z,18.5
2022-12-07T02:51:09.219Z,18.5
2022-12-07T02:52:52.915Z,18.5
2022-12-07T02:54:36.626Z,18.5
2022-12-07T02:56:20.317Z,18.5
2022-12-07T02:58:04.039Z,18.5
2022-12-07T02:59:47.715Z,18.5
2022-12-07T03:01:31.436Z,18.5
2022-12-07T03:03:15.178Z,18.5
2022-12-07T03:04:58.971Z,18.5
2022-12-07T03:06:42.607Z,18.5
2022-12-07T03:08:26.278Z,18.5
2022-12-07T03:10:09.951Z,18.5
2022-12-07T03:11:53.640Z,18.5
2022-12-07T03:13:37.359Z,18.5
2022-12-07T03:15:21.057Z,18.5
2022-12-07T03:17:04.758Z,18.5
2022-12-07T03:18:48.465Z,18.5
2022-12-07T03:20:32.213Z,18.5
2022-12-07T03:22:15.910Z,18.5
2022-12-07T03:23:59.623Z,18.5
2022-12-07T03:25:43.286Z,18.5
2022-12-07T03:27:26.970Z,18.5
2022-12-07T03:29:10.698Z,18.5
2022-12-07T03:30:54.386Z,18.5
2022-12-07T03:32:38.087Z,18.5
2022-12-07T03:34:21.781Z,18.5
2022-12-07T03:36:05.498Z,18.5
2022-12-07T03:37:49.192Z,18.5
2022-12-07T03:39:32.935Z,18.5
2022-12-07T03:41:16.610Z,18.5
2022-12-07T03:44:43.989Z,18.5
2022-12-07T03:46:27.692Z,18.5
2022-12-07T03:48:11.431Z,18.5
2022-12-07T03:49:55.151Z,18.5
2022-12-07T03:51:38.815Z,18.5
2022-12-07T03:53:22.504Z,18.5
2022-12-07T03:55:06.221Z,18.5
2022-12-07T03:56:49.917Z,18.4
2022-12-07T03:58:33.684Z,18.5
2022-12-07T04:00:17.332Z,18.4
2022-12-07T04:02:01.026Z,18.5
2022-12-07T04:03:44.722Z,18.5
2022-12-07T04:05:28.442Z,18.4
2022-12-07T04:07:12.152Z,18.4
2022-12-07T04:08:55.839Z,18.4
2022-12-07T04:10:39.576Z,18.4
2022-12-07T04:12:23.243Z,18.4
2022-12-07T04:14:06.946Z,18.4
2022-12-07T04:15:50.656Z,18.4
2022-12-07T04:17:34.347Z,18.4
2022-12-07T04:19:18.060Z,18.4
2022-12-07T04:21:01.753Z,18.4
2022-12-07T04:22:45.451Z,18.4
2022-12-07T04:24:29.161Z,18.4
2022-12-07T04:26:12.862Z,18.4
2022-12-07T04:27:56.568Z,18.4
2022-12-07T04:29:40.276Z,18.4
2022-12-07T04:31:23.968Z,18.4
2022-12-07T04:33:07.675Z,18.4
2022-12-07T04:34:51.387Z,18.4
2022-12-07T04:36:35.074Z,18.4
2022-12-07T04:38:18.783Z,18.4
2022-12-07T04:40:02.490Z,18.4
2022-12-07T04:41:46.194Z,18.4
2022-12-07T04:43:29.897Z,18.4
2022-12-07T04:45:13.650Z,18.4
2022-12-07T04:46:57.334Z,18.4
2022-12-07T04:48:41.006Z,18.4
2022-12-07T04:50:24.703Z,18.4
2022-12-07T04:52:08.410Z,18.4
2022-12-07T04:53:52.110Z,18.4
2022-12-07T04:55:35.858Z,18.4
2022-12-07T04:57:19.577Z,18.4
2022-12-07T04:59:03.212Z,18.4
2022-12-07T05:00:46.929Z,18.4
2022-12-07T05:02:30.630Z,18.4
2022-12-07T05:04:14.331Z,18.4
2022-12-07T05:05:58.035Z,18.4
2022-12-07T05:07:41.732Z,18.4
2022-12-07T05:09:25.478Z,18.4
2022-12-07T05:11:09.184Z,18.4
2022-12-07T05:12:52.839Z,18.4
2022-12-07T05:14:36.556Z,18.4
2022-12-07T05:16:20.251Z,18.4
2022-12-07T05:18:03.946Z,18.4
2022-12-07T05:19:47.653Z,18.4
2022-12-07T05:21:31.361Z,18.4
2022-12-07T05:23:15.059Z,18.4
2022-12-07T05:24:58.761Z,18.4
2022-12-07T05:26:42.544Z,18.4
2022-12-07T05:28:26.168Z,18.4
2022-12-07T05:30:09.890Z,18.4
2022-12-07T05:31:53.578Z,18.4
2022-12-07T05:33:37.274Z,18.4
2022-12-07T05:35:20.983Z,18.4
2022-12-07T05:37:04.673Z,18.4
2022-12-07T05:38:48.378Z,18.4
2022-12-07T05:40:32.088Z,18.4
2022-12-07T05:42:15.792Z,18.4
2022-12-07T05:43:59.491Z,18.4
2022-12-07T05:45:43.187Z,18.4
2022-12-07T05:47:27.045Z,18.4
2022-12-07T05:49:10.642Z,18.4
2022-12-07T05:50:54.317Z,18.4
2022-12-07T05:52:38.007Z,18.4
2022-12-07T05:54:21.708Z,18.4
2022-12-07T05:56:05.403Z,18.4
2022-12-07T05:57:49.119Z,18.4
2022-12-07T05:59:32.886Z,18.4
2022-12-07T06:01:16.537Z,18.4
2022-12-07T06:03:00.224Z,18.4
2022-12-07T06:04:43.921Z,18.4
2022-12-07T06:06:27.625Z,18.4
2022-12-07T06:08:11.337Z,18.4
2022-12-07T06:09:55.038Z,18.4
2022-12-07T06:11:38.730Z,18.4
2022-12-07T06:13:22.432Z,18.4
2022-12-07T06:15:06.135Z,18.4
2022-12-07T06:16:49.844Z,18.4
2022-12-07T06:18:33.541Z,18.4
2022-12-07T06:20:17.332Z,18.5
2022-12-07T06:22:00.955Z,18.5
2022-12-07T06:23:44.651Z,18.5
2022-12-07T06:25:28.419Z,18.5
2022-12-07T06:27:12.213Z,18.5
2022-12-07T06:28:55.765Z,18.5
2022-12-07T06:30:39.576Z,18.5
2022-12-07T06:32:23.230Z,18.5
2022-12-07T06:34:06.943Z,18.5
2022-12-07T06:35:50.595Z,18.5
2022-12-07T06:37:34.310Z,18.5
2022-12-07T06:39:17.992Z,18.5
2022-12-07T06:41:01.708Z,18.5
2022-12-07T06:42:45.401Z,18.5
2022-12-07T06:44:29.157Z,18.5
2022-12-07T06:46:12.825Z,18.5
2022-12-07T06:47:56.510Z,18.5
2022-12-07T06:49:40.212Z,18.5
2022-12-07T06:51:24.014Z,18.5
2022-12-07T06:53:07.612Z,18.5
2022-12-07T06:54:51.330Z,18.5
2022-12-07T06:56:35.086Z,18.5
2022-12-07T06:58:18.726Z,18.5
2022-12-07T07:00:02.433Z,18.5
2022-12-07T07:01:46.130Z,18.5
2022-12-07T07:03:29.933Z,18.5
2022-12-07T07:05:13.651Z,18.5
2022-12-07T07:06:57.244Z,18.5
2022-12-07T07:08:40.947Z,18.5
2022-12-07T07:10:24.646Z,18.5
2022-12-07T07:12:08.400Z,18.5
2022-12-07T07:13:52.060Z,18.5
2022-12-07T07:15:35.777Z,18.5
2022-12-07T07:17:19.554Z,18.5
2022-12-07T07:19:03.240Z,18.5
2022-12-07T07:20:46.878Z,18.5
2022-12-07T07:22:30.582Z,18.5
2022-12-07T07:24:14.442Z,18.5
2022-12-07T07:25:58.064Z,18.4
2022-12-07T07:27:41.718Z,18.4
2022-12-07T07:29:25.453Z,18.4
2022-12-07T07:31:09.092Z,18.4
2022-12-07T07:32:52.822Z,18.4
2022-12-07T07:34:36.559Z,18.4
2022-12-07T07:36:20.258Z,18.4
2022-12-07T07:38:03.888Z,18.4
2022-12-07T07:39:47.603Z,18.4
2022-12-07T07:41:31.370Z,18.4
2022-12-07T07:43:14.991Z,18.4
2022-12-07T07:44:58.717Z,18.4
2022-12-07T07:46:42.511Z,18.4
2022-12-07T07:48:26.119Z,18.4
2022-12-07T07:50:09.817Z,18.4
2022-12-07T07:51:53.505Z,18.4
2022-12-07T07:53:37.235Z,18.4
2022-12-07T07:55:20.952Z,18.4
2022-12-07T07:57:04.687Z,18.4
2022-12-07T07:58:48.344Z,18.4
2022-12-07T08:00:32.021Z,18.4
2022-12-07T08:02:15.891Z,18.4
2022-12-07T08:03:59.516Z,18.4
2022-12-07T08:05:43.239Z,18.4
2022-12-07T08:07:26.995Z,18.4
2022-12-07T08:09:10.612Z,18.4
2022-12-07T08:10:54.292Z,18.4
2022-12-07T08:12:38.005Z,18.4
2022-12-07T08:14:21.641Z,18.4
2022-12-07T08:16:05.351Z,18.4
2022-12-07T08:17:49.077Z,18.4
2022-12-07T08:19:32.762Z,18.4
2022-12-07T08:21:16.507Z,18.4
2022-12-07T08:23:00.240Z,18.4
2022-12-07T08:24:43.992Z,18.4
2022-12-07T08:26:27.673Z,18.4
2022-12-07T08:28:11.407Z,18.4
2022-12-07T08:29:54.959Z,18.4
2022-12-07T08:31:38.801Z,18.4
2022-12-07T08:33:22.463Z,18.4
2022-12-07T08:35:06.235Z,18.4
2022-12-07T08:36:49.857Z,18.4
2022-12-07T08:38:33.506Z,18.4
2022-12-07T08:40:17.373Z,18.4
2022-12-07T08:42:00.890Z,18.4
2022-12-07T08:43:44.775Z,18.4
2022-12-07T08:45:28.339Z,18.4
2022-12-07T08:47:12.094Z,18.4
2022-12-07T08:48:55.921Z,18.4
2022-12-07T08:50:39.457Z,18.4
2022-12-07T08:52:23.100Z,18.4
2022-12-07T08:54:06.874Z,18.4
2022-12-07T08:55:50.518Z,18.4
2022-12-07T08:57:34.291Z,18.4
2022-12-07T08:59:17.913Z,18.4
2022-12-07T09:01:01.648Z,18.4
2022-12-07T09:02:45.475Z,18.4
2022-12-07T09:04:29.023Z,18.4
2022-12-07T09:06:12.721Z,18.4
2022-12-07T09:07:56.426Z,18.4
2022-12-07T09:09:40.331Z,18.4
2022-12-07T09:11:23.967Z,18.4
2022-12-07T09:13:07.700Z,18.4
2022-12-07T09:14:51.293Z,18.4
2022-12-07T09:16:35.089Z,18.4
2022-12-07T09:18:18.654Z,18.4
2022-12-07T09:20:02.336Z,18.4
2022-12-07T09:21:46.176Z,18.4
2022-12-07T09:23:29.905Z,18.4
2022-12-07T09:25:13.514Z,18.4
2022-12-07T09:26:57.178Z,18.4
2022-12-07T09:28:41.204Z,18.4
2022-12-07T09:30:24.645Z,18.4
2022-12-07T09:32:08.265Z,18.4
2022-12-07T09:33:52.010Z,18.4
2022-12-07T09:35:35.720Z,18.4
2022-12-07T09:37:19.477Z,18.4
2022-12-07T09:39:03.065Z,18.4
2022-12-07T09:40:46.840Z,18.4
2022-12-07T09:42:30.624Z,18.4
2022-12-07T09:44:14.309Z,18.4
2022-12-07T09:45:58.032Z,18.4
2022-12-07T09:47:41.672Z,18.4
2022-12-07T09:49:25.287Z,18.4
2022-12-07T09:51:09.160Z,18.4
2022-12-07T09:52:52.841Z,18.4
2022-12-07T09:54:36.427Z,18.4
2022-12-07T09:56:20.106Z,18.4
2022-12-07T09:58:03.923Z,18.4
2022-12-07T09:59:47.512Z,18.4
2022-12-07T10:01:31.427Z,18.4
2022-12-07T10:03:15.036Z,18.4
2022-12-07T10:04:58.617Z,18.4
2022-12-07T10:06:42.367Z,18.4
2022-12-07T10:08:26.025Z,18.4
2022-12-07T10:10:09.741Z,18.4
2022-12-07T10:11:53.415Z,18.4
2022-12-07T10:13:37.128Z,18.4
2022-12-07T10:15:20.856Z,18.4
2022-12-07T10:17:04.618Z,18.4
2022-12-07T10:18:48.370Z,18.4
2022-12-07T10:20:31.977Z,18.4
2022-12-07T10:22:15.724Z,18.4
2022-12-07T10:23:59.442Z,18.4
2022-12-07T10:25:43.146Z,18.4
2022-12-07T10:27:26.930Z,18.4
2022-12-07T10:29:10.456Z,18.4
2022-12-07T10:30:54.308Z,18.4
2022-12-07T10:32:37.868Z,18.4
2022-12-07T10:34:21.553Z,18.4
2022-12-07T10:36:05.334Z,18.4
2022-12-07T10:37:48.974Z,18.4
2022-12-07T10:39:32.770Z,18.4
2022-12-07T10:41:16.368Z,18.4
2022-12-07T10:43:00.082Z,18.4
2022-12-07T10:44:43.766Z,18.4
2022-12-07T10:46:27.687Z,18.4
2022-12-07T10:48:11.193Z,18.4
2022-12-07T10:49:54.943Z,18.4
2022-12-07T10:51:38.618Z,18.4
2022-12-07T10:53:22.328Z,18.4
2022-12-07T10:55:06.002Z,18.4
2022-12-07T10:56:49.701Z,18.4
2022-12-07T10:58:33.432Z,18.4
2022-12-07T11:00:17.154Z,18.4
2022-12-07T11:02:00.880Z,18.4
2022-12-07T11:05:28.257Z,18.4
2022-12-07T11:07:11.997Z,18.4
2022-12-07T11:08:55.778Z,18.4
2022-12-07T11:10:39.487Z,18.4
2022-12-07T11:12:23.018Z,18.4
2022-12-07T11:15:50.443Z,18.4
2022-12-07T11:17:34.122Z,18.4
2022-12-07T11:19:18.268Z,18.4
2022-12-07T11:21:01.691Z,18.4
2022-12-07T11:22:45.242Z,18.4
2022-12-07T11:24:29.097Z,18.4
2022-12-07T11:26:12.807Z,18.4
2022-12-07T11:27:56.476Z,18.4
2022-12-07T11:29:40.265Z,18.4
2022-12-07T11:31:23.888Z,18.4
2022-12-07T11:34:51.334Z,18.4
2022-12-07T11:36:35.030Z,18.4
2022-12-07T11:38:18.707Z,18.4
2022-12-07T11:40:02.441Z,18.4
2022-12-07T11:41:46.197Z,18.4
2022-12-07T11:43:29.673Z,18.4
2022-12-07T11:45:13.528Z,18.4
2022-12-07T11:46:57.228Z,18.4
2022-12-07T11:48:40.933Z,18.4
2022-12-07T11:50:24.710Z,18.4
2022-12-07T11:52:08.328Z,18.4
2022-12-07T11:53:51.899Z,18.4
2022-12-07T11:55:35.755Z,18.4
2022-12-07T11:57:19.475Z,18.4
2022-12-07T11:59:03.202Z,18.4
2022-12-07T12:00:46.824Z,18.4
2022-12-07T12:02:30.503Z,18.4
2022-12-07T12:04:14.242Z,18.4
2022-12-07T12:05:57.889Z,18.4
2022-12-07T12:07:41.507Z,18.4
2022-12-07T12:09:25.197Z,18.4
2022-12-07T12:11:08.978Z,18.4
2022-12-07T12:12:52.606Z,18.5
2022-12-07T12:14:36.307Z,18.5
2022-12-07T12:16:20.140Z,18.5
2022-12-07T12:18:03.758Z,18.5
2022-12-07T12:19:47.422Z,18.5
2022-12-07T12:21:31.212Z,18.5
2022-12-07T12:23:14.973Z,18.5
2022-12-07T12:24:58.666Z,18.5
2022-12-07T12:26:42.244Z,18.5
2022-12-07T12:28:25.933Z,18.5
2022-12-07T12:30:09.643Z,18.5
2022-12-07T12:31:53.332Z,18.5
2022-12-07T12:33:37.096Z,18.5
2022-12-07T12:35:20.748Z,18.4
2022-12-07T12:37:04.448Z,18.5
2022-12-07T12:38:48.149Z,18.4
2022-12-07T12:40:31.850Z,18.4
2022-12-07T12:42:15.554Z,18.4
2022-12-07T12:43:59.299Z,18.4
2022-12-07T12:45:42.955Z,18.4
2022-12-07T12:47:26.757Z,18.4
2022-12-07T12:49:10.369Z,18.4
2022-12-07T12:50:54.064Z,18.4
2022-12-07T12:52:37.773Z,18.4
2022-12-07T12:54:21.473Z,18.4
2022-12-07T12:56:05.183Z,18.4
2022-12-07T12:57:48.878Z,18.4
2022-12-07T12:59:32.634Z,18.4
2022-12-07T13:01:16.421Z,18.4
2022-12-07T13:02:59.990Z,18.4
2022-12-07T13:04:43.681Z,18.4
2022-12-07T13:06:27.395Z,18.4
2022-12-07T13:08:11.097Z,18.4
2022-12-07T13:09:54.905Z,18.4
2022-12-07T13:11:38.545Z,18.4
2022-12-07T13:13:22.207Z,18.4
2022-12-07T13:15:05.904Z,18.4
2022-12-07T13:16:49.617Z,18.4
2022-12-07T13:20:17.058Z,18.4
2022-12-07T13:22:00.714Z,18.4
2022-12-07T13:23:44.414Z,18.4
2022-12-07T13:25:28.121Z,18.4
2022-12-07T13:27:11.825Z,18.4
2022-12-07T13:28:55.572Z,18.4
2022-12-07T13:30:39.226Z,18.4
2022-12-07T13:32:23.094Z,18.4
2022-12-07T13:34:06.707Z,18.4
2022-12-07T13:35:50.414Z,18.4
2022-12-07T13:37:34.043Z,18.4
2022-12-07T13:39:17.741Z,18.4
2022-12-07T13:41:01.455Z,18.4
2022-12-07T13:42:45.145Z,18.4
2022-12-07T13:44:28.854Z,18.4
2022-12-07T13:46:12.557Z,18.4
2022-12-07T13:47:56.341Z,18.4
2022-12-07T13:49:39.963Z,18.4
2022-12-07T13:51:23.741Z,18.4
2022-12-07T13:53:07.453Z,18.4
2022-12-07T13:54:51.115Z,18.4
2022-12-07T13:56:34.777Z,18.4
2022-12-07T13:58:18.487Z,18.4
2022-12-07T14:00:02.224Z,18.4
2022-12-07T14:01:45.953Z,18.4
2022-12-07T14:03:29.593Z,18.4
2022-12-07T14:05:13.288Z,18.4
2022-12-07T14:06:56.979Z,18.4
2022-12-07T14:08:40.814Z,18.4
2022-12-07T14:10:24.402Z,18.4
2022-12-07T14:12:08.098Z,18.4
2022-12-07T14:13:51.815Z,18.3
2022-12-07T14:15:35.500Z,18.4
2022-12-07T14:17:19.201Z,18.4
2022-12-07T14:19:03.005Z,18.3
2022-12-07T14:20:46.677Z,18.3
2022-12-07T14:22:30.397Z,18.4
2022-12-07T14:24:14.098Z,18.3
2022-12-07T14:25:57.710Z,18.3
2022-12-07T14:27:41.420Z,18.3
2022-12-07T14:29:25.116Z,18.3
2022-12-07T14:31:08.821Z,18.3
2022-12-07T14:32:52.528Z,18.3
2022-12-07T14:34:36.231Z,18.3
2022-12-07T14:36:20.031Z,18.3
2022-12-07T14:38:03.703Z,18.3
2022-12-07T14:39:47.333Z,18.3
2022-12-07T14:41:31.043Z,18.3
2022-12-07T14:43:14.744Z,18.3
2022-12-07T14:44:58.468Z,18.3
2022-12-07T14:46:42.152Z,18.3
2022-12-07T14:48:25.852Z,18.3
2022-12-07T14:50:09.612Z,18.3
2022-12-07T14:51:53.264Z,18.3
2022-12-07T14:53:36.975Z,18.3
2022-12-07T14:55:20.705Z,18.3
2022-12-07T14:57:04.547Z,18.3
2022-12-07T14:58:48.136Z,18.3
2022-12-07T15:00:31.975Z,18.3
2022-12-07T15:02:15.579Z,18.3
2022-12-07T15:03:59.225Z,18.3
2022-12-07T15:05:42.887Z,18.3
2022-12-07T15:07:26.577Z,18.3
2022-12-07T15:09:10.302Z,18.3
2022-12-07T15:10:53.998Z,18.3
2022-12-07T15:12:37.754Z,18.3
2022-12-07T15:14:21.385Z,18.3
2022-12-07T15:16:05.169Z,18.3
2022-12-07T15:17:48.821Z,18.3
2022-12-07T15:19:32.637Z,18.3
2022-12-07T15:21:16.369Z,18.3
2022-12-07T15:23:00.049Z,18.3
2022-12-07T15:24:43.620Z,18.2
2022-12-07T15:26:27.304Z,18.3
2022-12-07T15:28:11.081Z,18.3
2022-12-07T15:29:54.794Z,18.3
2022-12-07T15:31:38.414Z,18.3
2022-12-07T15:33:22.253Z,18.2
2022-12-07T15:35:05.948Z,18.2
2022-12-07T15:36:49.526Z,18.2
2022-12-07T15:38:33.283Z,18.3
2022-12-07T15:40:17.065Z,18.3
2022-12-07T15:42:00.786Z,18.3
2022-12-07T15:43:44.453Z,18.2
2022-12-07T15:45:28.148Z,18.3
2022-12-07T15:47:11.804Z,18.2
2022-12-07T15:48:55.443Z,18.2
2022-12-07T15:50:39.216Z,18.2
2022-12-07T15:52:22.857Z,18.2
2022-12-07T15:54:06.615Z,18.2
2022-12-07T15:55:50.357Z,18.2
2022-12-07T15:57:33.972Z,18.2
2022-12-07T15:59:17.779Z,18.2
2022-12-07T16:01:01.367Z,18.2
2022-12-07T16:02:45.194Z,18.2
2022-12-07T16:04:28.836Z,18.2
2022-12-07T16:06:12.636Z,18.2
2022-12-07T16:07:56.315Z,18.2
2022-12-07T16:09:40.019Z,18.2
2022-12-07T16:11:23.600Z,18.2
2022-12-07T16:13:07.338Z,18.2
2022-12-07T16:14:50.983Z,18.2
2022-12-07T16:16:34.697Z,18.2
2022-12-07T16:18:18.511Z,18.2
2022-12-07T16:20:02.115Z,18.2
2022-12-07T16:21:45.886Z,18.2
2022-12-07T16:23:29.522Z,18.2
2022-12-07T16:25:13.271Z,18.2
2022-12-07T16:26:57.078Z,18.2
2022-12-07T16:28:40.610Z,18.2
2022-12-07T16:30:24.313Z,18.2
2022-12-07T16:32:08.032Z,18.2
2022-12-07T16:33:51.819Z,18.2
2022-12-07T16:35:35.459Z,18.2
2022-12-07T16:37:19.115Z,18.2
2022-12-07T16:39:02.828Z,18.2
2022-12-07T16:40:46.711Z,18.2
2022-12-07T16:42:30.402Z,18.2
2022-12-07T16:44:14.129Z,18.2
2022-12-07T16:47:41.520Z,18.2
2022-12-07T16:49:25.210Z,18.3
2022-12-07T16:51:08.845Z,18.3
2022-12-07T16:52:52.595Z,18.3
2022-12-07T16:54:36.272Z,18.3
2022-12-07T16:56:19.977Z,18.4
2022-12-07T16:58:03.615Z,18.4
2022-12-07T16:59:47.410Z,18.4
2022-12-07T17:01:31.085Z,18.4
2022-12-07T17:03:14.732Z,18.4
2022-12-07T17:04:58.443Z,18.4
2022-12-07T17:06:42.099Z,18.4
2022-12-07T17:08:25.929Z,18.5
2022-12-07T17:10:09.471Z,18.5
2022-12-07T17:11:53.177Z,18.5
2022-12-07T17:13:36.967Z,18.5
2022-12-07T17:15:20.651Z,18.5
2022-12-07T17:17:04.298Z,18.5
2022-12-07T17:18:48.128Z,18.5
2022-12-07T17:20:31.711Z,18.6
2022-12-07T17:22:15.406Z,18.6
2022-12-07T17:23:59.115Z,18.6
2022-12-07T17:25:42.800Z,18.6
2022-12-07T17:27:26.519Z,18.6
2022-12-07T17:29:10.209Z,18.6
2022-12-07T17:30:53.907Z,18.6
2022-12-07T17:32:37.610Z,18.6
2022-12-07T17:34:21.457Z,18.6
2022-12-07T17:36:05.038Z,18.6
2022-12-07T17:37:48.725Z,18.7
2022-12-07T17:39:32.485Z,18.7
2022-12-07T17:41:16.116Z,18.7
2022-12-07T17:42:59.831Z,18.7
2022-12-07T17:44:43.526Z,18.7
2022-12-07T17:46:27.235Z,18.7
2022-12-07T17:48:10.989Z,18.7
2022-12-07T17:49:54.636Z,18.7
2022-12-07T17:51:38.341Z,18.7
2022-12-07T17:53:22.117Z,18.7
2022-12-07T17:55:05.749Z,18.7
2022-12-07T17:56:49.460Z,18.7
2022-12-07T17:58:33.164Z,18.7
2022-12-07T18:00:16.863Z,18.8
2022-12-07T18:02:00.562Z,18.8
2022-12-07T18:03:44.275Z,18.8
2022-12-07T18:05:28.024Z,18.8
2022-12-07T18:07:11.670Z,18.8
2022-12-07T18:08:55.473Z,18.8
2022-12-07T18:10:39.076Z,18.8
2022-12-07T18:12:22.784Z,18.8
2022-12-07T18:14:06.514Z,18.8
2022-12-07T18:15:50.197Z,18.8
2022-12-07T18:17:33.948Z,18.8
2022-12-07T18:19:17.703Z,18.8
2022-12-07T18:21:01.282Z,18.8
2022-12-07T18:22:44.991Z,18.9
2022-12-07T18:24:28.694Z,18.9
2022-12-07T18:26:12.393Z,18.9
2022-12-07T18:27:56.108Z,18.9
2022-12-07T18:29:39.855Z,18.9
2022-12-07T18:31:23.548Z,18.9
2022-12-07T18:33:07.202Z,18.9
2022-12-07T18:34:50.926Z,18.9
2022-12-07T18:36:34.610Z,18.9
2022-12-07T18:38:18.316Z,18.9
2022-12-07T18:40:02.059Z,18.9
2022-12-07T18:41:45.770Z,18.9
2022-12-07T18:43:29.430Z,18.9
2022-12-07T18:45:13.139Z,19
2022-12-07T18:46:56.833Z,19
2022-12-07T18:48:40.539Z,19
2022-12-07T18:50:24.232Z,19
2022-12-07T18:52:07.939Z,19
2022-12-07T18:53:51.681Z,19
2022-12-07T18:55:35.443Z,19.1
2022-12-07T18:57:19.053Z,19.1
2022-12-07T18:59:02.754Z,19.1
2022-12-07T19:00:46.568Z,19.1
2022-12-07T19:02:30.171Z,19.1
2022-12-07T19:04:13.916Z,19.1
2022-12-07T19:05:57.562Z,19.1
2022-12-07T19:07:41.328Z,19.1
2022-12-07T19:09:24.972Z,19.1
2022-12-07T19:11:08.676Z,19.1
2022-12-07T19:12:52.382Z,19.1
2022-12-07T19:14:36.125Z,19.1
2022-12-07T19:16:19.788Z,19.1
2022-12-07T19:18:03.483Z,19
2022-12-07T19:19:47.357Z,18.2
2022-12-07T19:21:30.930Z,17.6
2022-12-07T19:23:14.643Z,17.9
2022-12-07T19:24:58.284Z,18.1
2022-12-07T19:26:42.000Z,18.2
2022-12-07T19:28:25.697Z,18.3
2022-12-07T19:30:09.518Z,18.4
2022-12-07T19:31:53.143Z,18.4
2022-12-07T19:33:36.817Z,18.5
2022-12-07T19:35:20.573Z,18.6
2022-12-07T19:37:04.216Z,18.6
2022-12-07T19:38:47.919Z,18.7
2022-12-07T19:40:31.625Z,18.7
2022-12-07T19:42:15.425Z,18.8
2022-12-07T19:43:59.026Z,18.8
2022-12-07T19:45:42.778Z,18.9
2022-12-07T19:47:26.496Z,18.9
2022-12-07T19:49:10.127Z,18.9
2022-12-07T19:50:53.831Z,18.9
2022-12-07T19:52:37.573Z,19
2022-12-07T19:54:21.275Z,19
2022-12-07T19:56:04.956Z,19
2022-12-07T19:57:48.708Z,19
2022-12-07T19:59:32.410Z,19.1
2022-12-07T20:01:16.170Z,19.1
2022-12-07T20:02:59.750Z,19.1
2022-12-07T20:04:43.449Z,19.1
2022-12-07T20:06:27.193Z,19.1
2022-12-07T20:08:10.868Z,19.1
2022-12-07T20:09:54.593Z,19.2
2022-12-07T20:11:38.275Z,19.2
2022-12-07T20:13:21.968Z,19.2
2022-12-07T20:15:05.666Z,19.2
2022-12-07T20:16:49.390Z,19.2
2022-12-07T20:18:33.086Z,19.2
2022-12-07T20:20:16.831Z,19.2
2022-12-07T20:22:00.575Z,19.3
2022-12-07T20:23:44.232Z,19.3
2022-12-07T20:25:27.881Z,19.3
2022-12-07T20:27:11.608Z,19.3
2022-12-07T20:28:55.284Z,19.3
2022-12-07T20:30:38.999Z,19.3
2022-12-07T20:32:22.799Z,19.3
2022-12-07T20:34:06.441Z,19.3
2022-12-07T20:35:50.232Z,19.4
2022-12-07T20:37:33.861Z,19.4
2022-12-07T20:39:17.581Z,19.4
2022-12-07T20:41:01.220Z,19.4
2022-12-07T20:42:44.908Z,19.4
2022-12-07T20:44:28.625Z,19.4
2022-12-07T20:46:12.331Z,19.4
2022-12-07T20:47:56.010Z,19.4
2022-12-07T20:49:39.839Z,19.4
2022-12-07T20:51:23.424Z,19.4
2022-12-07T20:53:07.127Z,19.4
2022-12-07T20:54:50.895Z,19.4
2022-12-07T20:56:34.591Z,19.4
2022-12-07T20:58:18.245Z,19.4
2022-12-07T21:00:01.944Z,19.4
2022-12-07T21:01:45.646Z,19.4
2022-12-07T21:03:29.352Z,19.4
2022-12-07T21:05:13.143Z,19.4
2022-12-07T21:06:56.779Z,19.4
2022-12-07T21:08:40.457Z,19.4
2022-12-07T21:10:24.221Z,19.4
2022-12-07T21:12:07.893Z,19.4
2022-12-07T21:13:51.706Z,19.4
2022-12-07T21:15:35.264Z,19.4
2022-12-07T21:17:19.021Z,19.4
2022-12-07T21:19:02.733Z,19.4
2022-12-07T21:20:46.437Z,19.4
2022-12-07T21:22:30.204Z,19.4
2022-12-07T21:24:13.829Z,19.4
2022-12-07T21:25:57.483Z,19.4
2022-12-07T21:27:41.235Z,19.4
2022-12-07T21:29:24.988Z,19.4
2022-12-07T21:31:08.644Z,19.4
2022-12-07T21:32:52.391Z,19.4
2022-12-07T21:34:36.160Z,19.4
2022-12-07T21:36:19.701Z,19.4
2022-12-07T21:38:03.411Z,19.4
2022-12-07T21:39:47.201Z,19.4
2022-12-07T21:41:30.898Z,19.4
2022-12-07T21:43:14.502Z,19.4
2022-12-07T21:44:58.303Z,19.4
2022-12-07T21:46:41.915Z,19.4
2022-12-07T21:48:25.764Z,19.5
2022-12-07T21:50:09.456Z,19.4
2022-12-07T21:51:53.177Z,19.4
2022-12-07T21:53:36.751Z,19.5
2022-12-07T21:55:20.545Z,19.5
2022-12-07T21:57:04.194Z,19.4
2022-12-07T21:58:47.887Z,19.5
2022-12-07T22:00:31.613Z,19.5
2022-12-07T22:02:15.380Z,19.5
2022-12-07T22:03:59.015Z,19.5
2022-12-07T22:05:42.649Z,19.5
2022-12-07T22:07:26.491Z,19.5
2022-12-07T22:09:10.235Z,19.5
2022-12-07T22:10:53.752Z,19.5
2022-12-07T22:12:37.459Z,19.5
2022-12-07T22:14:21.158Z,19.5
2022-12-07T22:16:04.868Z,19.5
2022-12-07T22:17:48.570Z,19.5
2022-12-07T22:19:32.357Z,19.5
2022-12-07T22:21:15.969Z,19.5
2022-12-07T22:22:59.697Z,19.5
2022-12-07T22:24:43.409Z,19.5
2022-12-07T22:26:27.133Z,19.5
2022-12-07T22:28:10.780Z,19.5
2022-12-07T22:29:54.483Z,19.5
2022-12-07T22:31:38.196Z,19.5
2022-12-07T22:33:21.894Z,19.5
2022-12-07T22:35:05.701Z,19.5
2022-12-07T22:36:49.298Z,19.5
2022-12-07T22:38:33.002Z,19.5
2022-12-07T22:40:16.762Z,19.5
2022-12-07T22:42:00.510Z,19.5
2022-12-07T22:43:44.136Z,19.5
2022-12-07T22:45:27.841Z,19.5
2022-12-07T22:47:11.596Z,19.5
2022-12-07T22:48:55.422Z,19.5
2022-12-07T22:50:38.965Z,19.5
2022-12-07T22:52:22.623Z,19.5
2022-12-07T22:54:06.450Z,19.5
2022-12-07T22:55:50.098Z,19.5
2022-12-07T22:57:33.736Z,19.5
2022-12-07T22:59:17.508Z,19.5
2022-12-07T23:01:01.130Z,19.5
2022-12-07T23:02:44.859Z,19.5
2022-12-07T23:04:28.619Z,19.5
2022-12-07T23:06:12.336Z,19.5
2022-12-07T23:07:56.017Z,19.5
2022-12-07T23:09:39.766Z,19.5
2022-12-07T23:11:23.345Z,19.5
2022-12-07T23:13:07.051Z,19.5